Hikone, Japan

2:32 PM JST on August 24, 2016 (GMT +0900)
Hatchome Nanboku Dori | | Change Station

Elev 295 ft 35.23 °N, 136.22 °E | Updated 5 minutes ago

Thunderstorms and Rain
Thunderstorm Rain
91.8 °F
Feels Like 103 °F
N
0.6
Wind Variable Wind from East
Gusts 2.5 mph

Today
High -- | Low -- °F
--% Chance of Precip.
Yesterday
High -- | Low -- °F
Precip. -- in
Pressure 29.74 in
Visibility 6.2 miles
Clouds Few 500 ft
Scattered Clouds 800 ft
Mostly Cloudy 2000 ft
Heat Index 103 °F
Dew Point 76 °F
Humidity 59%
Rainfall 0.00 in
Snow Depth Not available.
5:21 AM 6:32 PM
Waning Gibbous, 61% visible
SPECI RJNG 240509Z 12008KT 9999 TSRA FEW005 SCT008 BKN020CB 27/25 Q1007 RMK 1ST005 3CU008 6CB020 A2975 VIS SE 5KM FBL TS SE CB NE-SE
Pressure 29.74 in
Visibility 6.2 miles
Clouds Few 500 ft
Scattered Clouds 800 ft
Mostly Cloudy 2000 ft
Heat Index 103 °F
Dew Point 76 °F
Humidity 59%
Rainfall 0.00 in
Snow Depth Not available.
5:21 AM 6:32 PM
Waning Gibbous, 61% visible
SPECI RJNG 240509Z 12008KT 9999 TSRA FEW005 SCT008 BKN020CB 27/25 Q1007 RMK 1ST005 3CU008 6CB020 A2975 VIS SE 5KM FBL TS SE CB NE-SE

10-Day Weather Forecast

No radar image for this location.
×

Almanac

Astronomy

Aug. 24, 2016 Rise Set
Actual Time
Civil Twilight
Nautical Twilight
Astronomical Twilight
Moon
Length of Visible Light
Length of Day
Tomorrow will be .
, % of the Moon is Illuminated

Today's Extremes

Country Highs Country Lows

Community

WunderPhotos

Upload Photos

1,934,554 photos uploaded!

WunderBlog® & News

Nearby

Air Quality

  Air Quality AQ Index Pollutant
Not available.

Snow Depth

Station Depth Elevation

Earthquake Activity

City Distance Mag. Time & Date
Minimum magnitude displayed is 2.5.

Coastal Water Temperatures

Place Temperature

Stations

Nearby Weather Stations

Station Location Temp. Windchill Dew Point Humidity Wind Precip. Elev Updated Type